sensor_id;sensor_type;location;lat;lon;timestamp;P1;durP1;ratioP1;P2;durP2;ratioP2
73452;SDS011;61687;56.232;43.854;2023-09-19T00:02:17;20.35;;;11.45;;
73452;SDS011;61687;56.232;43.854;2023-09-19T00:04:43;21.17;;;11.87;;
73452;SDS011;61687;56.232;43.854;2023-09-19T00:07:10;23.85;;;13.13;;
73452;SDS011;61687;56.232;43.854;2023-09-19T00:09:36;20.40;;;11.98;;
73452;SDS011;61687;56.232;43.854;2023-09-19T00:12:05;19.65;;;12.75;;
73452;SDS011;61687;56.232;43.854;2023-09-19T00:14:32;25.58;;;12.63;;
73452;SDS011;61687;56.232;43.854;2023-09-19T00:17:04;20.70;;;12.13;;
73452;SDS011;61687;56.232;43.854;2023-09-19T00:19:34;21.20;;;12.40;;
73452;SDS011;61687;56.232;43.854;2023-09-19T00:22:01;21.60;;;12.05;;
73452;SDS011;61687;56.232;43.854;2023-09-19T00:24:28;20.05;;;12.15;;
73452;SDS011;61687;56.232;43.854;2023-09-19T00:26:54;22.73;;;13.33;;
73452;SDS011;61687;56.232;43.854;2023-09-19T00:29:21;20.13;;;12.13;;
73452;SDS011;61687;56.232;43.854;2023-09-19T00:31:50;23.40;;;12.88;;
73452;SDS011;61687;56.232;43.854;2023-09-19T00:34:15;21.08;;;12.52;;
73452;SDS011;61687;56.232;43.854;2023-09-19T00:36:41;18.70;;;11.83;;
73452;SDS011;61687;56.232;43.854;2023-09-19T00:39:08;22.48;;;12.70;;
73452;SDS011;61687;56.232;43.854;2023-09-19T00:41:35;19.25;;;12.02;;
73452;SDS011;61687;56.232;43.854;2023-09-19T00:44:02;20.83;;;12.30;;
73452;SDS011;61687;56.232;43.854;2023-09-19T00:46:30;21.95;;;12.68;;
73452;SDS011;61687;56.232;43.854;2023-09-19T00:48:58;21.63;;;12.27;;
73452;SDS011;61687;56.232;43.854;2023-09-19T00:51:24;20.33;;;12.35;;
73452;SDS011;61687;56.232;43.854;2023-09-19T00:53:51;20.13;;;12.02;;
73452;SDS011;61687;56.232;43.854;2023-09-19T00:56:18;19.98;;;11.98;;
73452;SDS011;61687;56.232;43.854;2023-09-19T00:58:44;21.92;;;11.30;;
73452;SDS011;61687;56.232;43.854;2023-09-19T01:01:12;18.73;;;10.43;;
73452;SDS011;61687;56.232;43.854;2023-09-19T01:03:43;20.25;;;11.98;;
73452;SDS011;61687;56.232;43.854;2023-09-19T01:06:11;18.13;;;11.82;;
73452;SDS011;61687;56.232;43.854;2023-09-19T01:08:38;20.08;;;12.10;;
73452;SDS011;61687;56.232;43.854;2023-09-19T01:11:13;20.92;;;12.52;;
73452;SDS011;61687;56.232;43.854;2023-09-19T01:14:01;19.87;;;12.47;;
73452;SDS011;61687;56.232;43.854;2023-09-19T01:16:48;21.88;;;11.63;;
73452;SDS011;61687;56.232;43.854;2023-09-19T01:30:58;22.95;;;12.60;;
73452;SDS011;61687;56.232;43.854;2023-09-19T01:33:27;18.52;;;12.05;;
73452;SDS011;61687;56.232;43.854;2023-09-19T01:35:53;21.67;;;11.85;;
73452;SDS011;61687;56.232;43.854;2023-09-19T01:38:21;22.58;;;11.80;;
73452;SDS011;61687;56.232;43.854;2023-09-19T01:40:49;22.57;;;11.83;;
73452;SDS011;61687;56.232;43.854;2023-09-19T01:43:31;18.20;;;11.25;;
73452;SDS011;61687;56.232;43.854;2023-09-19T01:46:15;22.65;;;11.68;;
73452;SDS011;61687;56.232;43.854;2023-09-19T01:52:00;21.47;;;10.83;;
73452;SDS011;61687;56.232;43.854;2023-09-19T01:54:40;20.30;;;11.55;;
73452;SDS011;61687;56.232;43.854;2023-09-19T01:57:22;20.27;;;11.60;;
73452;SDS011;61687;56.232;43.854;2023-09-19T01:59:57;18.88;;;10.82;;
73452;SDS011;61687;56.232;43.854;2023-09-19T02:02:40;20.65;;;11.57;;
73452;SDS011;61687;56.232;43.854;2023-09-19T02:05:10;20.30;;;11.60;;
73452;SDS011;61687;56.232;43.854;2023-09-19T02:07:37;20.38;;;11.93;;
73452;SDS011;61687;56.232;43.854;2023-09-19T02:10:05;18.63;;;11.52;;
73452;SDS011;61687;56.232;43.854;2023-09-19T02:12:33;18.88;;;11.25;;
73452;SDS011;61687;56.232;43.854;2023-09-19T02:15:03;22.02;;;10.80;;
73452;SDS011;61687;56.232;43.854;2023-09-19T02:17:32;19.40;;;11.17;;
73452;SDS011;61687;56.232;43.854;2023-09-19T02:19:58;20.90;;;12.10;;
73452;SDS011;61687;56.232;43.854;2023-09-19T02:22:27;20.42;;;11.68;;
73452;SDS011;61687;56.232;43.854;2023-09-19T02:24:54;21.33;;;11.00;;
73452;SDS011;61687;56.232;43.854;2023-09-19T02:27:24;18.40;;;10.93;;
73452;SDS011;61687;56.232;43.854;2023-09-19T02:29:51;19.70;;;10.80;;
73452;SDS011;61687;56.232;43.854;2023-09-19T02:32:17;20.83;;;11.90;;
73452;SDS011;61687;56.232;43.854;2023-09-19T02:34:43;21.65;;;11.68;;
73452;SDS011;61687;56.232;43.854;2023-09-19T02:37:10;21.75;;;11.23;;
73452;SDS011;61687;56.232;43.854;2023-09-19T02:39:39;20.48;;;11.32;;
73452;SDS011;61687;56.232;43.854;2023-09-19T02:42:05;18.37;;;10.60;;
73452;SDS011;61687;56.232;43.854;2023-09-19T02:44:31;18.70;;;11.18;;
73452;SDS011;61687;56.232;43.854;2023-09-19T02:46:58;20.10;;;11.90;;
73452;SDS011;61687;56.232;43.854;2023-09-19T02:49:24;21.80;;;11.45;;
73452;SDS011;61687;56.232;43.854;2023-09-19T02:51:50;22.17;;;10.70;;
73452;SDS011;61687;56.232;43.854;2023-09-19T02:54:17;20.20;;;11.37;;
73452;SDS011;61687;56.232;43.854;2023-09-19T02:56:43;19.17;;;11.25;;
73452;SDS011;61687;56.232;43.854;2023-09-19T02:59:09;23.52;;;12.23;;
73452;SDS011;61687;56.232;43.854;2023-09-19T03:01:38;21.73;;;11.27;;
73452;SDS011;61687;56.232;43.854;2023-09-19T03:04:04;20.33;;;11.75;;
73452;SDS011;61687;56.232;43.854;2023-09-19T03:06:37;21.40;;;11.17;;
73452;SDS011;61687;56.232;43.854;2023-09-19T03:09:06;21.02;;;11.27;;
73452;SDS011;61687;56.232;43.854;2023-09-19T03:11:39;22.20;;;11.93;;
73452;SDS011;61687;56.232;43.854;2023-09-19T03:14:06;23.65;;;11.05;;
73452;SDS011;61687;56.232;43.854;2023-09-19T03:16:32;23.13;;;12.13;;
73452;SDS011;61687;56.232;43.854;2023-09-19T03:18:59;22.93;;;12.00;;
73452;SDS011;61687;56.232;43.854;2023-09-19T03:21:26;20.98;;;11.32;;
73452;SDS011;61687;56.232;43.854;2023-09-19T03:23:55;23.73;;;12.50;;
73452;SDS011;61687;56.232;43.854;2023-09-19T03:26:21;21.02;;;12.23;;
73452;SDS011;61687;56.232;43.854;2023-09-19T03:28:47;18.87;;;10.23;;
73452;SDS011;61687;56.232;43.854;2023-09-19T03:31:14;22.88;;;12.38;;
73452;SDS011;61687;56.232;43.854;2023-09-19T03:33:39;26.25;;;12.50;;
73452;SDS011;61687;56.232;43.854;2023-09-19T03:36:05;21.20;;;11.07;;
73452;SDS011;61687;56.232;43.854;2023-09-19T03:38:33;27.30;;;11.15;;
73452;SDS011;61687;56.232;43.854;2023-09-19T03:41:02;21.38;;;11.70;;
73452;SDS011;61687;56.232;43.854;2023-09-19T03:43:29;22.65;;;10.55;;
73452;SDS011;61687;56.232;43.854;2023-09-19T03:45:55;23.98;;;12.10;;
73452;SDS011;61687;56.232;43.854;2023-09-19T03:48:22;22.23;;;12.03;;
73452;SDS011;61687;56.232;43.854;2023-09-19T03:50:50;25.55;;;11.70;;
73452;SDS011;61687;56.232;43.854;2023-09-19T03:53:16;25.98;;;12.55;;
73452;SDS011;61687;56.232;43.854;2023-09-19T03:55:44;23.15;;;12.23;;
73452;SDS011;61687;56.232;43.854;2023-09-19T03:58:10;23.83;;;11.97;;
73452;SDS011;61687;56.232;43.854;2023-09-19T04:00:38;31.35;;;12.57;;
73452;SDS011;61687;56.232;43.854;2023-09-19T04:03:04;28.00;;;13.20;;
73452;SDS011;61687;56.232;43.854;2023-09-19T04:05:32;24.77;;;12.25;;
73452;SDS011;61687;56.232;43.854;2023-09-19T04:07:59;21.70;;;12.50;;
73452;SDS011;61687;56.232;43.854;2023-09-19T04:10:25;23.43;;;12.63;;
73452;SDS011;61687;56.232;43.854;2023-09-19T04:12:54;28.20;;;13.20;;
73452;SDS011;61687;56.232;43.854;2023-09-19T04:15:22;27.42;;;12.93;;
73452;SDS011;61687;56.232;43.854;2023-09-19T04:17:52;31.67;;;13.23;;
73452;SDS011;61687;56.232;43.854;2023-09-19T04:20:18;28.93;;;13.27;;
73452;SDS011;61687;56.232;43.854;2023-09-19T04:22:50;32.83;;;13.93;;
73452;SDS011;61687;56.232;43.854;2023-09-19T04:25:17;30.10;;;12.85;;
73452;SDS011;61687;56.232;43.854;2023-09-19T04:27:45;26.15;;;12.75;;
73452;SDS011;61687;56.232;43.854;2023-09-19T04:30:11;36.63;;;14.48;;
73452;SDS011;61687;56.232;43.854;2023-09-19T04:32:38;27.60;;;12.68;;
73452;SDS011;61687;56.232;43.854;2023-09-19T04:35:07;32.05;;;15.02;;
73452;SDS011;61687;56.232;43.854;2023-09-19T04:37:38;38.05;;;14.07;;
73452;SDS011;61687;56.232;43.854;2023-09-19T04:40:06;31.33;;;14.18;;
73452;SDS011;61687;56.232;43.854;2023-09-19T04:42:40;37.40;;;14.50;;
73452;SDS011;61687;56.232;43.854;2023-09-19T04:45:07;38.75;;;16.15;;
73452;SDS011;61687;56.232;43.854;2023-09-19T04:47:35;48.67;;;15.32;;
73452;SDS011;61687;56.232;43.854;2023-09-19T04:50:05;32.25;;;14.13;;
73452;SDS011;61687;56.232;43.854;2023-09-19T04:52:42;33.28;;;14.35;;
73452;SDS011;61687;56.232;43.854;2023-09-19T04:55:13;42.42;;;14.73;;
73452;SDS011;61687;56.232;43.854;2023-09-19T04:57:43;37.70;;;15.37;;
73452;SDS011;61687;56.232;43.854;2023-09-19T05:00:14;33.10;;;15.95;;
73452;SDS011;61687;56.232;43.854;2023-09-19T05:02:46;40.10;;;14.40;;
73452;SDS011;61687;56.232;43.854;2023-09-19T05:05:19;39.60;;;16.63;;
73452;SDS011;61687;56.232;43.854;2023-09-19T05:07:46;36.97;;;15.95;;
73452;SDS011;61687;56.232;43.854;2023-09-19T05:10:13;37.03;;;16.67;;
73452;SDS011;61687;56.232;43.854;2023-09-19T05:12:39;36.78;;;17.73;;
73452;SDS011;61687;56.232;43.854;2023-09-19T05:15:06;42.92;;;17.73;;
73452;SDS011;61687;56.232;43.854;2023-09-19T05:17:33;34.58;;;17.38;;
73452;SDS011;61687;56.232;43.854;2023-09-19T05:20:00;35.47;;;17.60;;
73452;SDS011;61687;56.232;43.854;2023-09-19T05:22:31;30.80;;;16.97;;
73452;SDS011;61687;56.232;43.854;2023-09-19T05:24:58;40.38;;;17.83;;
73452;SDS011;61687;56.232;43.854;2023-09-19T05:27:24;53.65;;;18.75;;
73452;SDS011;61687;56.232;43.854;2023-09-19T05:29:49;48.77;;;20.83;;
73452;SDS011;61687;56.232;43.854;2023-09-19T05:32:18;44.45;;;21.50;;
73452;SDS011;61687;56.232;43.854;2023-09-19T05:34:45;46.35;;;22.58;;
73452;SDS011;61687;56.232;43.854;2023-09-19T05:37:12;47.70;;;20.20;;
73452;SDS011;61687;56.232;43.854;2023-09-19T05:39:39;45.08;;;19.63;;
73452;SDS011;61687;56.232;43.854;2023-09-19T05:42:05;49.33;;;18.97;;
73452;SDS011;61687;56.232;43.854;2023-09-19T05:44:33;43.75;;;20.63;;
73452;SDS011;61687;56.232;43.854;2023-09-19T05:46:59;49.35;;;21.90;;
73452;SDS011;61687;56.232;43.854;2023-09-19T05:49:25;44.33;;;20.60;;
73452;SDS011;61687;56.232;43.854;2023-09-19T05:51:51;50.80;;;19.53;;
73452;SDS011;61687;56.232;43.854;2023-09-19T05:54:22;42.35;;;18.60;;
73452;SDS011;61687;56.232;43.854;2023-09-19T05:56:48;47.80;;;20.55;;
73452;SDS011;61687;56.232;43.854;2023-09-19T05:59:17;41.83;;;20.77;;
73452;SDS011;61687;56.232;43.854;2023-09-19T06:01:44;39.53;;;18.52;;
73452;SDS011;61687;56.232;43.854;2023-09-19T06:04:09;36.87;;;18.03;;
73452;SDS011;61687;56.232;43.854;2023-09-19T06:06:35;32.72;;;15.93;;
73452;SDS011;61687;56.232;43.854;2023-09-19T06:09:04;33.28;;;13.55;;
73452;SDS011;61687;56.232;43.854;2023-09-19T06:11:34;28.47;;;12.77;;
73452;SDS011;61687;56.232;43.854;2023-09-19T06:14:01;31.40;;;14.77;;
73452;SDS011;61687;56.232;43.854;2023-09-19T06:16:30;31.73;;;12.93;;
73452;SDS011;61687;56.232;43.854;2023-09-19T06:18:59;21.63;;;7.43;;
73452;SDS011;61687;56.232;43.854;2023-09-19T06:21:28;16.65;;;5.95;;
73452;SDS011;61687;56.232;43.854;2023-09-19T06:23:54;15.83;;;4.80;;
73452;SDS011;61687;56.232;43.854;2023-09-19T06:26:20;17.02;;;5.30;;
73452;SDS011;61687;56.232;43.854;2023-09-19T06:28:46;13.43;;;6.95;;
73452;SDS011;61687;56.232;43.854;2023-09-19T06:31:12;15.43;;;4.10;;
73452;SDS011;61687;56.232;43.854;2023-09-19T06:33:38;12.80;;;4.53;;
73452;SDS011;61687;56.232;43.854;2023-09-19T06:36:06;13.13;;;5.53;;
73452;SDS011;61687;56.232;43.854;2023-09-19T06:38:33;14.65;;;4.82;;
73452;SDS011;61687;56.232;43.854;2023-09-19T06:41:02;12.80;;;5.30;;
73452;SDS011;61687;56.232;43.854;2023-09-19T06:43:32;11.13;;;5.87;;
73452;SDS011;61687;56.232;43.854;2023-09-19T06:45:59;12.23;;;5.30;;
73452;SDS011;61687;56.232;43.854;2023-09-19T06:48:26;16.75;;;4.68;;
73452;SDS011;61687;56.232;43.854;2023-09-19T06:50:55;14.45;;;3.95;;
73452;SDS011;61687;56.232;43.854;2023-09-19T06:53:24;14.63;;;4.17;;
73452;SDS011;61687;56.232;43.854;2023-09-19T06:55:50;11.43;;;4.25;;
73452;SDS011;61687;56.232;43.854;2023-09-19T06:58:16;9.00;;;3.85;;
73452;SDS011;61687;56.232;43.854;2023-09-19T07:00:43;13.48;;;4.00;;
73452;SDS011;61687;56.232;43.854;2023-09-19T07:03:10;8.18;;;4.00;;
73452;SDS011;61687;56.232;43.854;2023-09-19T07:05:39;6.37;;;3.30;;
73452;SDS011;61687;56.232;43.854;2023-09-19T07:08:06;9.90;;;3.53;;
73452;SDS011;61687;56.232;43.854;2023-09-19T07:10:33;8.32;;;3.10;;
73452;SDS011;61687;56.232;43.854;2023-09-19T07:13:00;6.22;;;2.45;;
73452;SDS011;61687;56.232;43.854;2023-09-19T07:15:28;6.78;;;2.83;;
73452;SDS011;61687;56.232;43.854;2023-09-19T07:17:56;6.67;;;2.77;;
73452;SDS011;61687;56.232;43.854;2023-09-19T07:20:23;10.05;;;2.97;;
73452;SDS011;61687;56.232;43.854;2023-09-19T07:22:53;6.30;;;3.25;;
73452;SDS011;61687;56.232;43.854;2023-09-19T07:25:25;10.75;;;3.45;;
73452;SDS011;61687;56.232;43.854;2023-09-19T07:27:51;8.98;;;3.35;;
73452;SDS011;61687;56.232;43.854;2023-09-19T07:30:17;6.73;;;3.67;;
73452;SDS011;61687;56.232;43.854;2023-09-19T07:32:43;9.60;;;4.00;;
73452;SDS011;61687;56.232;43.854;2023-09-19T07:35:09;12.93;;;4.97;;
73452;SDS011;61687;56.232;43.854;2023-09-19T07:37:35;12.95;;;5.55;;
73452;SDS011;61687;56.232;43.854;2023-09-19T07:40:05;11.23;;;4.90;;
73452;SDS011;61687;56.232;43.854;2023-09-19T07:42:40;10.60;;;5.38;;
73452;SDS011;61687;56.232;43.854;2023-09-19T07:45:06;8.90;;;4.45;;
73452;SDS011;61687;56.232;43.854;2023-09-19T07:47:43;10.40;;;4.97;;
73452;SDS011;61687;56.232;43.854;2023-09-19T07:50:10;10.83;;;4.87;;
73452;SDS011;61687;56.232;43.854;2023-09-19T07:52:36;8.90;;;4.57;;
73452;SDS011;61687;56.232;43.854;2023-09-19T07:55:05;8.40;;;3.88;;
73452;SDS011;61687;56.232;43.854;2023-09-19T07:57:35;8.38;;;3.92;;
73452;SDS011;61687;56.232;43.854;2023-09-19T08:00:01;6.63;;;2.55;;
73452;SDS011;61687;56.232;43.854;2023-09-19T08:02:37;7.27;;;2.87;;
73452;SDS011;61687;56.232;43.854;2023-09-19T08:05:10;9.88;;;2.67;;
73452;SDS011;61687;56.232;43.854;2023-09-19T08:07:38;6.72;;;2.95;;
73452;SDS011;61687;56.232;43.854;2023-09-19T08:10:05;7.65;;;3.17;;
73452;SDS011;61687;56.232;43.854;2023-09-19T08:12:42;8.93;;;4.68;;
73452;SDS011;61687;56.232;43.854;2023-09-19T08:15:15;11.80;;;4.57;;
73452;SDS011;61687;56.232;43.854;2023-09-19T08:17:43;9.05;;;4.47;;
73452;SDS011;61687;56.232;43.854;2023-09-19T08:20:09;10.13;;;4.30;;
73452;SDS011;61687;56.232;43.854;2023-09-19T08:22:43;10.48;;;6.00;;
73452;SDS011;61687;56.232;43.854;2023-09-19T08:25:14;13.15;;;6.03;;
73452;SDS011;61687;56.232;43.854;2023-09-19T08:27:45;18.77;;;6.77;;
73452;SDS011;61687;56.232;43.854;2023-09-19T08:30:14;13.90;;;5.55;;
73452;SDS011;61687;56.232;43.854;2023-09-19T08:32:44;12.57;;;5.80;;
73452;SDS011;61687;56.232;43.854;2023-09-19T08:35:11;16.45;;;5.40;;
73452;SDS011;61687;56.232;43.854;2023-09-19T08:37:37;12.93;;;5.70;;
73452;SDS011;61687;56.232;43.854;2023-09-19T08:40:03;15.83;;;5.50;;
73452;SDS011;61687;56.232;43.854;2023-09-19T08:42:31;11.00;;;5.35;;
73452;SDS011;61687;56.232;43.854;2023-09-19T08:45:13;14.98;;;5.25;;
73452;SDS011;61687;56.232;43.854;2023-09-19T08:47:40;15.43;;;5.93;;
73452;SDS011;61687;56.232;43.854;2023-09-19T08:50:21;11.97;;;5.70;;
73452;SDS011;61687;56.232;43.854;2023-09-19T08:52:54;8.45;;;4.40;;
73452;SDS011;61687;56.232;43.854;2023-09-19T08:55:23;7.47;;;3.47;;
73452;SDS011;61687;56.232;43.854;2023-09-19T08:57:56;5.13;;;2.88;;
73452;SDS011;61687;56.232;43.854;2023-09-19T09:00:26;8.43;;;3.92;;
73452;SDS011;61687;56.232;43.854;2023-09-19T09:02:54;6.60;;;3.40;;
73452;SDS011;61687;56.232;43.854;2023-09-19T09:05:22;6.10;;;3.50;;
73452;SDS011;61687;56.232;43.854;2023-09-19T09:07:49;9.50;;;4.47;;
73452;SDS011;61687;56.232;43.854;2023-09-19T09:10:19;9.15;;;5.38;;
73452;SDS011;61687;56.232;43.854;2023-09-19T09:12:54;13.15;;;4.60;;
73452;SDS011;61687;56.232;43.854;2023-09-19T09:15:23;9.90;;;4.70;;
73452;SDS011;61687;56.232;43.854;2023-09-19T09:17:49;9.25;;;4.38;;
73452;SDS011;61687;56.232;43.854;2023-09-19T09:20:16;7.22;;;4.03;;
73452;SDS011;61687;56.232;43.854;2023-09-19T09:22:50;8.00;;;3.72;;
73452;SDS011;61687;56.232;43.854;2023-09-19T09:25:18;8.75;;;4.03;;
73452;SDS011;61687;56.232;43.854;2023-09-19T09:27:46;8.30;;;4.10;;
73452;SDS011;61687;56.232;43.854;2023-09-19T09:30:35;5.95;;;3.38;;
73452;SDS011;61687;56.232;43.854;2023-09-19T09:33:11;6.13;;;3.08;;
73452;SDS011;61687;56.232;43.854;2023-09-19T09:38:44;6.95;;;3.15;;
73452;SDS011;61687;56.232;43.854;2023-09-19T09:41:11;5.67;;;3.70;;
73452;SDS011;61687;56.232;43.854;2023-09-19T09:43:41;7.40;;;3.35;;
73452;SDS011;61687;56.232;43.854;2023-09-19T09:48:55;5.70;;;2.97;;
73452;SDS011;61687;56.232;43.854;2023-09-19T09:51:42;5.97;;;3.03;;
73452;SDS011;61687;56.232;43.854;2023-09-19T09:55:01;7.73;;;3.07;;
73452;SDS011;61687;56.232;43.854;2023-09-19T09:57:31;8.75;;;3.28;;
73452;SDS011;61687;56.232;43.854;2023-09-19T09:59:57;5.85;;;3.00;;
73452;SDS011;61687;56.232;43.854;2023-09-19T10:02:38;6.13;;;3.08;;
73452;SDS011;61687;56.232;43.854;2023-09-19T10:05:11;6.50;;;2.67;;
73452;SDS011;61687;56.232;43.854;2023-09-19T10:07:49;9.13;;;4.20;;
73452;SDS011;61687;56.232;43.854;2023-09-19T10:10:37;10.75;;;5.47;;
73452;SDS011;61687;56.232;43.854;2023-09-19T10:13:10;10.25;;;6.07;;
73452;SDS011;61687;56.232;43.854;2023-09-19T10:15:42;9.48;;;5.70;;
73452;SDS011;61687;56.232;43.854;2023-09-19T10:18:22;7.60;;;3.90;;
73452;SDS011;61687;56.232;43.854;2023-09-19T10:20:50;15.60;;;9.07;;
73452;SDS011;61687;56.232;43.854;2023-09-19T10:23:18;7.75;;;4.25;;
73452;SDS011;61687;56.232;43.854;2023-09-19T10:25:49;4.82;;;2.50;;
73452;SDS011;61687;56.232;43.854;2023-09-19T10:28:17;6.22;;;2.10;;
73452;SDS011;61687;56.232;43.854;2023-09-19T10:30:48;5.57;;;2.78;;
73452;SDS011;61687;56.232;43.854;2023-09-19T10:33:18;5.60;;;2.80;;
73452;SDS011;61687;56.232;43.854;2023-09-19T10:35:49;6.10;;;3.28;;
73452;SDS011;61687;56.232;43.854;2023-09-19T10:38:22;6.38;;;3.40;;
73452;SDS011;61687;56.232;43.854;2023-09-19T10:40:50;6.22;;;2.70;;
73452;SDS011;61687;56.232;43.854;2023-09-19T10:43:19;9.98;;;3.55;;
73452;SDS011;61687;56.232;43.854;2023-09-19T10:45:49;8.53;;;3.17;;
73452;SDS011;61687;56.232;43.854;2023-09-19T10:48:20;4.05;;;2.40;;
73452;SDS011;61687;56.232;43.854;2023-09-19T10:50:52;6.93;;;2.58;;
73452;SDS011;61687;56.232;43.854;2023-09-19T10:53:51;5.22;;;2.85;;
73452;SDS011;61687;56.232;43.854;2023-09-19T10:56:21;4.20;;;2.63;;
73452;SDS011;61687;56.232;43.854;2023-09-19T10:59:05;10.63;;;2.50;;
73452;SDS011;61687;56.232;43.854;2023-09-19T11:01:53;8.20;;;3.00;;
73452;SDS011;61687;56.232;43.854;2023-09-19T11:04:30;7.90;;;3.38;;
73452;SDS011;61687;56.232;43.854;2023-09-19T11:14:56;9.90;;;4.22;;
73452;SDS011;61687;56.232;43.854;2023-09-19T11:17:39;5.78;;;3.22;;
73452;SDS011;61687;56.232;43.854;2023-09-19T11:30:35;5.00;;;2.90;;
73452;SDS011;61687;56.232;43.854;2023-09-19T11:33:15;7.28;;;2.67;;
73452;SDS011;61687;56.232;43.854;2023-09-19T11:36:19;6.85;;;3.00;;
73452;SDS011;61687;56.232;43.854;2023-09-19T11:46:24;5.30;;;2.83;;
73452;SDS011;61687;56.232;43.854;2023-09-19T11:48:51;5.55;;;2.15;;
73452;SDS011;61687;56.232;43.854;2023-09-19T11:51:21;5.00;;;2.80;;
73452;SDS011;61687;56.232;43.854;2023-09-19T11:53:49;4.20;;;2.03;;
73452;SDS011;61687;56.232;43.854;2023-09-19T11:56:20;6.20;;;2.35;;
73452;SDS011;61687;56.232;43.854;2023-09-19T11:58:49;5.60;;;2.35;;
73452;SDS011;61687;56.232;43.854;2023-09-19T12:01:21;6.40;;;3.10;;
73452;SDS011;61687;56.232;43.854;2023-09-19T12:03:52;6.03;;;2.97;;
73452;SDS011;61687;56.232;43.854;2023-09-19T12:06:19;5.18;;;2.45;;
73452;SDS011;61687;56.232;43.854;2023-09-19T12:08:47;5.90;;;2.97;;
73452;SDS011;61687;56.232;43.854;2023-09-19T12:11:14;5.10;;;2.80;;
73452;SDS011;61687;56.232;43.854;2023-09-19T12:13:44;4.13;;;2.30;;
73452;SDS011;61687;56.232;43.854;2023-09-19T12:16:19;6.60;;;2.13;;
73452;SDS011;61687;56.232;43.854;2023-09-19T12:18:49;4.15;;;1.83;;
73452;SDS011;61687;56.232;43.854;2023-09-19T12:21:22;6.00;;;2.15;;
73452;SDS011;61687;56.232;43.854;2023-09-19T12:24:05;4.22;;;1.92;;
73452;SDS011;61687;56.232;43.854;2023-09-19T12:26:38;5.18;;;2.40;;
73452;SDS011;61687;56.232;43.854;2023-09-19T12:29:10;7.90;;;2.47;;
73452;SDS011;61687;56.232;43.854;2023-09-19T12:34:26;6.30;;;2.30;;
73452;SDS011;61687;56.232;43.854;2023-09-19T12:37:03;4.40;;;2.40;;
73452;SDS011;61687;56.232;43.854;2023-09-19T12:39:53;4.20;;;1.85;;
73452;SDS011;61687;56.232;43.854;2023-09-19T12:42:39;3.80;;;2.20;;
73452;SDS011;61687;56.232;43.854;2023-09-19T12:45:07;5.45;;;2.55;;
73452;SDS011;61687;56.232;43.854;2023-09-19T12:47:34;4.68;;;2.10;;
73452;SDS011;61687;56.232;43.854;2023-09-19T12:50:07;3.00;;;1.98;;
73452;SDS011;61687;56.232;43.854;2023-09-19T12:52:39;4.20;;;2.00;;
73452;SDS011;61687;56.232;43.854;2023-09-19T12:55:07;4.75;;;2.05;;
73452;SDS011;61687;56.232;43.854;2023-09-19T12:57:34;3.47;;;2.05;;
73452;SDS011;61687;56.232;43.854;2023-09-19T13:00:01;7.35;;;1.90;;
73452;SDS011;61687;56.232;43.854;2023-09-19T13:02:29;4.55;;;2.28;;
73452;SDS011;61687;56.232;43.854;2023-09-19T13:04:55;4.70;;;2.47;;
73452;SDS011;61687;56.232;43.854;2023-09-19T13:07:43;5.53;;;3.10;;
73452;SDS011;61687;56.232;43.854;2023-09-19T13:10:10;7.03;;;2.20;;
73452;SDS011;61687;56.232;43.854;2023-09-19T13:12:38;6.72;;;2.55;;
73452;SDS011;61687;56.232;43.854;2023-09-19T13:15:11;4.43;;;2.50;;
73452;SDS011;61687;56.232;43.854;2023-09-19T13:17:47;5.35;;;2.85;;
73452;SDS011;61687;56.232;43.854;2023-09-19T13:20:21;7.05;;;3.47;;
73452;SDS011;61687;56.232;43.854;2023-09-19T13:22:54;6.93;;;3.00;;
73452;SDS011;61687;56.232;43.854;2023-09-19T13:25:23;8.80;;;3.20;;
73452;SDS011;61687;56.232;43.854;2023-09-19T13:27:51;8.93;;;3.87;;
73452;SDS011;61687;56.232;43.854;2023-09-19T13:30:20;3.78;;;2.20;;
73452;SDS011;61687;56.232;43.854;2023-09-19T13:32:47;3.15;;;1.98;;
73452;SDS011;61687;56.232;43.854;2023-09-19T13:35:13;4.70;;;2.00;;
73452;SDS011;61687;56.232;43.854;2023-09-19T13:37:40;5.73;;;2.60;;
73452;SDS011;61687;56.232;43.854;2023-09-19T13:42:34;4.97;;;2.60;;
73452;SDS011;61687;56.232;43.854;2023-09-19T13:45:02;5.90;;;2.50;;
73452;SDS011;61687;56.232;43.854;2023-09-19T13:47:32;5.50;;;2.67;;
73452;SDS011;61687;56.232;43.854;2023-09-19T13:49:58;9.93;;;2.57;;
73452;SDS011;61687;56.232;43.854;2023-09-19T13:52:24;6.78;;;3.35;;
73452;SDS011;61687;56.232;43.854;2023-09-19T13:54:56;8.40;;;3.03;;
73452;SDS011;61687;56.232;43.854;2023-09-19T13:57:25;4.05;;;1.90;;
73452;SDS011;61687;56.232;43.854;2023-09-19T13:59:52;11.88;;;2.90;;
73452;SDS011;61687;56.232;43.854;2023-09-19T14:02:22;11.40;;;2.37;;
73452;SDS011;61687;56.232;43.854;2023-09-19T14:04:49;7.50;;;2.70;;
73452;SDS011;61687;56.232;43.854;2023-09-19T14:07:15;7.82;;;3.13;;
73452;SDS011;61687;56.232;43.854;2023-09-19T14:09:43;7.47;;;3.03;;
73452;SDS011;61687;56.232;43.854;2023-09-19T14:12:09;5.85;;;2.40;;
73452;SDS011;61687;56.232;43.854;2023-09-19T14:14:35;7.17;;;2.27;;
73452;SDS011;61687;56.232;43.854;2023-09-19T14:17:03;7.80;;;2.83;;
73452;SDS011;61687;56.232;43.854;2023-09-19T14:19:29;6.88;;;2.33;;
73452;SDS011;61687;56.232;43.854;2023-09-19T14:21:56;5.90;;;3.08;;
73452;SDS011;61687;56.232;43.854;2023-09-19T14:24:22;8.33;;;2.93;;
73452;SDS011;61687;56.232;43.854;2023-09-19T14:26:48;9.40;;;3.15;;
73452;SDS011;61687;56.232;43.854;2023-09-19T14:29:15;11.15;;;3.65;;
73452;SDS011;61687;56.232;43.854;2023-09-19T14:31:42;8.48;;;3.45;;
73452;SDS011;61687;56.232;43.854;2023-09-19T14:34:08;9.43;;;3.45;;
73452;SDS011;61687;56.232;43.854;2023-09-19T14:36:37;13.30;;;3.30;;
73452;SDS011;61687;56.232;43.854;2023-09-19T14:39:06;12.23;;;3.25;;
73452;SDS011;61687;56.232;43.854;2023-09-19T14:41:34;7.57;;;3.35;;
73452;SDS011;61687;56.232;43.854;2023-09-19T14:44:01;10.23;;;3.85;;
73452;SDS011;61687;56.232;43.854;2023-09-19T14:46:28;12.85;;;3.47;;
73452;SDS011;61687;56.232;43.854;2023-09-19T14:48:55;7.50;;;3.60;;
73452;SDS011;61687;56.232;43.854;2023-09-19T14:51:25;10.15;;;3.88;;
73452;SDS011;61687;56.232;43.854;2023-09-19T14:53:51;12.68;;;4.40;;
73452;SDS011;61687;56.232;43.854;2023-09-19T14:56:17;9.00;;;4.50;;
73452;SDS011;61687;56.232;43.854;2023-09-19T14:58:45;12.33;;;4.87;;
73452;SDS011;61687;56.232;43.854;2023-09-19T15:01:13;14.88;;;5.35;;
73452;SDS011;61687;56.232;43.854;2023-09-19T15:03:40;16.77;;;5.72;;
73452;SDS011;61687;56.232;43.854;2023-09-19T15:06:12;11.07;;;5.72;;
73452;SDS011;61687;56.232;43.854;2023-09-19T15:08:46;19.75;;;5.65;;
73452;SDS011;61687;56.232;43.854;2023-09-19T15:11:14;14.13;;;5.83;;
73452;SDS011;61687;56.232;43.854;2023-09-19T15:13:44;12.63;;;5.45;;
73452;SDS011;61687;56.232;43.854;2023-09-19T15:16:11;13.45;;;5.35;;
73452;SDS011;61687;56.232;43.854;2023-09-19T15:18:42;10.13;;;5.25;;
73452;SDS011;61687;56.232;43.854;2023-09-19T15:21:11;11.77;;;5.43;;
73452;SDS011;61687;56.232;43.854;2023-09-19T15:23:38;18.93;;;7.63;;
73452;SDS011;61687;56.232;43.854;2023-09-19T15:26:10;11.35;;;5.78;;
73452;SDS011;61687;56.232;43.854;2023-09-19T15:28:38;12.35;;;6.57;;